Gaz Unity — HOEJ — position and weather

sailwx.info

Track history (hours):
 
Tides and Currents Weather Stations Pressure Air Temp Water Temp Dewpoint Dewpoint Depression Visibility Wind Speed Wind Dir Waves Ship Positions

Gaz Unity

Last reported at 2014-Oct-20 05:24 UTC. Time now 2014-Oct-22 15:37 UTC.
Position N 35°49' E 014°51'.

Length 228 m; draft 11.1 m.

Type: Ship (hazmat cat C). MMSI: 353956000.

Date/timePositionNaut miles runAvg speedWind from/ knotsBaromVisibWave heightAir tempDewpointWater temp
2014-Oct-20 05:24N 35°49' E 014°51'0 0.0
2014-Oct-20 01:33N 35°49' E 014°51'2 0.7
2014-Oct-19 22:20N 35°48' E 014°53'35 1.2
2014-Oct-18 17:12N 35°39' E 015°35'1 0.5
2014-Oct-18 15:33N 35°40' E 015°35'1 0.5
2014-Oct-18 14:18N 35°40' E 015°35'0 0.5
2014-Oct-18 13:30N 35°41' E 015°35'1 0.5
2014-Oct-18 12:33N 35°41' E 015°35'1 0.6
2014-Oct-18 11:33N 35°42' E 015°35'1 0.5
2014-Oct-18 10:33N 35°42' E 015°34'1 0.5
2014-Oct-18 09:33N 35°43' E 015°34'0 0.3
2014-Oct-18 08:33N 35°43' E 015°33'5 4.0
2014-Oct-18 07:14N 35°37' E 015°34'4 5.3
2014-Oct-18 06:33N 35°34' E 015°34'1 0.7
2014-Oct-18 05:19N 35°33' E 015°34'0 0.4
2014-Oct-18 04:33N 35°33' E 015°33'0 0.4
2014-Oct-18 03:33N 35°33' E 015°33'0 0.4
2014-Oct-18 02:33N 35°33' E 015°32'0 0.4
2014-Oct-18 01:33N 35°33' E 015°32'0 0.3
2014-Oct-18 00:33N 35°33' E 015°32'0 0.3
2014-Oct-17 23:33N 35°33' E 015°31'0 0.3
2014-Oct-17 22:33N 35°33' E 015°31'0 0.3
2014-Oct-17 21:33N 35°33' E 015°31'0 0.4
2014-Oct-17 20:33N 35°34' E 015°30'1 0.6
2014-Oct-17 19:33N 35°34' E 015°30'1 0.7
2014-Oct-17 18:33N 35°34' E 015°29'1 0.7
2014-Oct-17 17:33N 35°35' E 015°28'1 0.8
2014-Oct-17 16:33N 35°35' E 015°27'1 0.9
2014-Oct-17 15:33N 35°35' E 015°26'1 0.9
2014-Oct-17 14:33N 35°35' E 015°25'1 1.0
2014-Oct-17 13:33N 35°35' E 015°24'1 0.9
2014-Oct-17 12:33N 35°35' E 015°23'3 2.8
2014-Oct-17 11:33N 35°36' E 015°26'3 3.1
2014-Oct-17 10:33N 35°37' E 015°30'1 0.5
2014-Oct-17 09:33N 35°36' E 015°29'0 0.4
2014-Oct-17 08:33N 35°36' E 015°29'0 0.4
2014-Oct-17 07:33N 35°36' E 015°29'0 0.3
2014-Oct-17 06:33N 35°36' E 015°29'0 0.2
2014-Oct-17 05:33N 35°35' E 015°29'0 0.2
2014-Oct-17 04:33N 35°35' E 015°28'0 0.3
2014-Oct-17 03:33N 35°35' E 015°28'0 0.2
2014-Oct-17 02:33N 35°35' E 015°28'0 0.2
2014-Oct-17 01:33N 35°35' E 015°27'0 0.2
2014-Oct-17 00:33N 35°35' E 015°27'0 0.3
2014-Oct-16 23:33N 35°35' E 015°27'0 0.4
2014-Oct-16 22:33N 35°35' E 015°26'0 0.4
2014-Oct-16 21:33N 35°35' E 015°26'0 0.3
2014-Oct-16 20:33N 35°35' E 015°26'0 0.2
2014-Oct-16 19:33N 35°35' E 015°25'0 0.3
2014-Oct-16 18:33N 35°35' E 015°25'0 0.4
2014-Oct-16 17:33N 35°34' E 015°25'0 0.5
2014-Oct-16 16:33N 35°34' E 015°24'0 0.2
2014-Oct-16 15:33N 35°34' E 015°24'4 3.5
2014-Oct-16 14:19N 35°39' E 015°23'1 0.5
2014-Oct-16 12:21N 35°38' E 015°22'0 0.4
2014-Oct-16 11:33N 35°38' E 015°22'1 0.4
2014-Oct-16 08:26N 35°37' E 015°21'6 3.1
2014-Oct-16 06:33N 35°42' E 015°25'2 1.8
2014-Oct-16 05:33N 35°44' E 015°26'0 0.4
2014-Oct-16 04:33N 35°44' E 015°26'2 0.3
2014-Oct-15 22:28N 35°43' E 015°24'0 0.3
2014-Oct-15 21:32N 35°43' E 015°24'0 0.3
2014-Oct-15 20:27N 35°42' E 015°23'1 0.4
2014-Oct-15 17:33N 35°41' E 015°23'1 0.6
2014-Oct-15 16:31N 35°41' E 015°22'1 0.6
2014-Oct-15 15:32N 35°40' E 015°22'1 0.7
2014-Oct-15 14:31N 35°40' E 015°21'1 0.9
2014-Oct-15 13:33N 35°39' E 015°21'1 1.0
2014-Oct-15 12:26N 35°38' E 015°20'3 0.8
2014-Oct-15 08:30N 35°36' E 015°17'1 0.7
2014-Oct-15 07:29N 35°35' E 015°17'1 0.8
2014-Oct-15 06:08N 35°34' E 015°16'1 0.9
2014-Oct-15 05:03N 35°33' E 015°16'0 0.8
2014-Oct-15 04:33N 35°33' E 015°16'1 0.7
2014-Oct-15 03:33N 35°32' E 015°15'1 0.8
2014-Oct-15 02:33N 35°32' E 015°15'1 0.7
2014-Oct-15 01:32N 35°31' E 015°14'1 0.6
2014-Oct-15 00:33N 35°30' E 015°14'1 0.8
2014-Oct-14 23:33N 35°30' E 015°13'1 0.8
2014-Oct-14 22:33N 35°29' E 015°13'1 0.7
2014-Oct-14 21:33N 35°28' E 015°13'1 0.6
2014-Oct-14 20:33N 35°28' E 015°12'0 0.5
2014-Oct-14 19:33N 35°28' E 015°12'0 0.5
2014-Oct-14 18:33N 35°27' E 015°12'1 0.5
2014-Oct-14 17:33N 35°27' E 015°11'1 0.6
2014-Oct-14 16:33N 35°26' E 015°11'1 0.6
2014-Oct-14 15:33N 35°26' E 015°10'1 0.6
2014-Oct-14 14:33N 35°25' E 015°10'1 0.5
2014-Oct-14 13:33N 35°25' E 015°09'0 0.3
2014-Oct-14 12:33N 35°25' E 015°09'1 0.7
2014-Oct-14 11:33N 35°25' E 015°10'1 0.5
2014-Oct-14 10:33N 35°25' E 015°11'1 0.5
2014-Oct-14 09:33N 35°25' E 015°10'0 0.4
2014-Oct-14 08:33N 35°24' E 015°10'3 2.8
2014-Oct-14 07:33N 35°26' E 015°13'4 0.2
2014-Oct-13 06:07N 35°23' E 015°09'0 0.6
2014-Oct-13 05:33N 35°23' E 015°09'1 0.6
2014-Oct-13 04:33N 35°23' E 015°08'1 0.6
2014-Oct-13 03:33N 35°23' E 015°07'1 0.6
2014-Oct-13 02:33N 35°23' E 015°06'1 0.5
2014-Oct-13 01:33N 35°23' E 015°06'0 0.4
2014-Oct-13 00:33N 35°23' E 015°05'0 0.3
2014-Oct-12 23:31N 35°23' E 015°05'0 0.3
2014-Oct-12 22:25N 35°23' E 015°05'0 0.3
2014-Oct-12 21:27N 35°23' E 015°04'0 0.3
2014-Oct-12 20:26N 35°23' E 015°04'0 0.3
2014-Oct-12 19:33N 35°23' E 015°04'0 0.3
2014-Oct-12 18:33N 35°23' E 015°03'0 0.2
2014-Oct-12 17:33N 35°23' E 015°03'2 1.6
2014-Oct-12 16:33N 35°25' E 015°04'1 0.7
2014-Oct-12 15:33N 35°25' E 015°04'1 0.6
2014-Oct-12 14:31N 35°25' E 015°03'0 0.5
2014-Oct-12 13:33N 35°26' E 015°02'0 0.4
2014-Oct-12 12:24N 35°26' E 015°02'0 0.3
2014-Oct-12 11:33N 35°26' E 015°02'0 0.3
2014-Oct-12 10:33N 35°26' E 015°01'0 0.2
2014-Oct-12 09:32N 35°26' E 015°01'1 0.6
2014-Oct-12 08:33N 35°26' E 015°02'4 3.9
2014-Oct-12 07:33N 35°29' E 015°05'6 5.2
2014-Oct-12 06:27N 35°34' E 015°08'1 0.6
2014-Oct-12 05:20N 35°35' E 015°08'0 0.6
2014-Oct-12 04:33N 35°34' E 015°07'0 0.5
2014-Oct-12 03:33N 35°34' E 015°07'0 0.3
2014-Oct-12 02:32N 35°34' E 015°07'0 0.3
2014-Oct-12 01:33N 35°34' E 015°06'0 0.2
2014-Oct-12 00:33N 35°34' E 015°06'0 0.1
2014-Oct-11 23:33N 35°34' E 015°06'0 0.1
2014-Oct-11 22:23N 35°34' E 015°06'0 0.2
2014-Oct-11 21:33N 35°34' E 015°06'0 0.2
2014-Oct-11 20:30N 35°34' E 015°06'0 0.2
2014-Oct-11 19:26N 35°34' E 015°05'1 0.4
2014-Oct-11 17:21N 35°34' E 015°04'1 1.2
2014-Oct-11 16:27N 35°35' E 015°03'7 8.2
2014-Oct-11 15:32N 35°41' E 014°58'1212.4
2014-Oct-11 14:33N 35°52' E 014°54'1 0.9
2014-Oct-11 13:33N 35°53' E 014°53'0 0.0
2014-Oct-11 10:12N 35°53' E 014°53'0 0.1
2014-Oct-11 09:33N 35°53' E 014°53'0 0.1
2014-Oct-11 08:33N 35°53' E 014°53'0 0.1
2014-Oct-11 07:33N 35°53' E 014°53'0 0.0
2014-Oct-11 06:21N 35°53' E 014°53'0 0.1
2014-Oct-11 05:21N 35°53' E 014°53'0 0.1
2014-Oct-11 04:15N 35°53' E 014°53'0 0.0
2014-Oct-11 03:27N 35°53' E 014°53'0 0.0
2014-Oct-11 02:33N 35°53' E 014°53'0 0.0
2014-Oct-11 01:27N 35°53' E 014°53'0 0.0
2014-Oct-11 00:27N 35°53' E 014°53'0 0.0
2014-Oct-10 23:24N 35°53' E 014°53'0 0.0
2014-Oct-10 22:30N 35°53' E 014°53'0 0.0
2014-Oct-10 21:27N 35°53' E 014°53'0 0.0
2014-Oct-10 20:27N 35°53' E 014°53'0 0.0
2014-Oct-10 19:18N 35°53' E 014°53'0 0.0
2014-Oct-10 18:33N 35°53' E 014°53'0 0.0
2014-Oct-10 17:24N 35°53' E 014°53'0 0.0
2014-Oct-10 16:18N 35°53' E 014°53'0 0.0
2014-Oct-10 15:33N 35°53' E 014°53'0 0.0
2014-Oct-10 14:06N 35°53' E 014°53'0 0.0
2014-Oct-10 12:24N 35°53' E 014°53'14 7.2
2014-Oct-10 10:29N 35°40' E 014°59'  
Track history (hours):
 
Tides and Currents Weather Stations Pressure Air Temp Water Temp Dewpoint Dewpoint Depression Visibility Wind Speed Wind Dir Waves Ship Positions

Gaz Unity

Last reported at 2014-Oct-20 05:24 UTC. Time now 2014-Oct-22 15:37 UTC.
Position N 35°49' E 014°51'.

Length 228 m; draft 11.1 m.

Type: Ship (hazmat cat C). MMSI: 353956000.

Date/timePositionNaut miles runAvg speedWind from/ knotsBaromVisibWave heightAir tempDewpointWater temp
2014-Oct-20 05:24N 35°49' E 014°51'0 0.0
2014-Oct-20 01:33N 35°49' E 014°51'2 0.7
2014-Oct-19 22:20N 35°48' E 014°53'35 1.2
2014-Oct-18 17:12N 35°39' E 015°35'1 0.5
2014-Oct-18 15:33N 35°40' E 015°35'1 0.5
2014-Oct-18 14:18N 35°40' E 015°35'0 0.5
2014-Oct-18 13:30N 35°41' E 015°35'1 0.5
2014-Oct-18 12:33N 35°41' E 015°35'1 0.6
2014-Oct-18 11:33N 35°42' E 015°35'1 0.5
2014-Oct-18 10:33N 35°42' E 015°34'1 0.5
2014-Oct-18 09:33N 35°43' E 015°34'0 0.3
2014-Oct-18 08:33N 35°43' E 015°33'5 4.0
2014-Oct-18 07:14N 35°37' E 015°34'4 5.3
2014-Oct-18 06:33N 35°34' E 015°34'1 0.7
2014-Oct-18 05:19N 35°33' E 015°34'0 0.4
2014-Oct-18 04:33N 35°33' E 015°33'0 0.4
2014-Oct-18 03:33N 35°33' E 015°33'0 0.4
2014-Oct-18 02:33N 35°33' E 015°32'0 0.4
2014-Oct-18 01:33N 35°33' E 015°32'0 0.3
2014-Oct-18 00:33N 35°33' E 015°32'0 0.3
2014-Oct-17 23:33N 35°33' E 015°31'0 0.3
2014-Oct-17 22:33N 35°33' E 015°31'0 0.3
2014-Oct-17 21:33N 35°33' E 015°31'0 0.4
2014-Oct-17 20:33N 35°34' E 015°30'1 0.6
2014-Oct-17 19:33N 35°34' E 015°30'1 0.7
2014-Oct-17 18:33N 35°34' E 015°29'1 0.7
2014-Oct-17 17:33N 35°35' E 015°28'1 0.8
2014-Oct-17 16:33N 35°35' E 015°27'1 0.9
2014-Oct-17 15:33N 35°35' E 015°26'1 0.9
2014-Oct-17 14:33N 35°35' E 015°25'1 1.0
2014-Oct-17 13:33N 35°35' E 015°24'1 0.9
2014-Oct-17 12:33N 35°35' E 015°23'3 2.8
2014-Oct-17 11:33N 35°36' E 015°26'3 3.1
2014-Oct-17 10:33N 35°37' E 015°30'1 0.5
2014-Oct-17 09:33N 35°36' E 015°29'0 0.4
2014-Oct-17 08:33N 35°36' E 015°29'0 0.4
2014-Oct-17 07:33N 35°36' E 015°29'0 0.3
2014-Oct-17 06:33N 35°36' E 015°29'0 0.2
2014-Oct-17 05:33N 35°35' E 015°29'0 0.2
2014-Oct-17 04:33N 35°35' E 015°28'0 0.3
2014-Oct-17 03:33N 35°35' E 015°28'0 0.2
2014-Oct-17 02:33N 35°35' E 015°28'0 0.2
2014-Oct-17 01:33N 35°35' E 015°27'0 0.2
2014-Oct-17 00:33N 35°35' E 015°27'0 0.3
2014-Oct-16 23:33N 35°35' E 015°27'0 0.4
2014-Oct-16 22:33N 35°35' E 015°26'0 0.4
2014-Oct-16 21:33N 35°35' E 015°26'0 0.3
2014-Oct-16 20:33N 35°35' E 015°26'0 0.2
2014-Oct-16 19:33N 35°35' E 015°25'0 0.3
2014-Oct-16 18:33N 35°35' E 015°25'0 0.4
2014-Oct-16 17:33N 35°34' E 015°25'0 0.5
2014-Oct-16 16:33N 35°34' E 015°24'0 0.2
2014-Oct-16 15:33N 35°34' E 015°24'4 3.5
2014-Oct-16 14:19N 35°39' E 015°23'1 0.5
2014-Oct-16 12:21N 35°38' E 015°22'0 0.4
2014-Oct-16 11:33N 35°38' E 015°22'1 0.4
2014-Oct-16 08:26N 35°37' E 015°21'6 3.1
2014-Oct-16 06:33N 35°42' E 015°25'2 1.8
2014-Oct-16 05:33N 35°44' E 015°26'0 0.4
2014-Oct-16 04:33N 35°44' E 015°26'2 0.3
2014-Oct-15 22:28N 35°43' E 015°24'0 0.3
2014-Oct-15 21:32N 35°43' E 015°24'0 0.3
2014-Oct-15 20:27N 35°42' E 015°23'1 0.4
2014-Oct-15 17:33N 35°41' E 015°23'1 0.6
2014-Oct-15 16:31N 35°41' E 015°22'1 0.6
2014-Oct-15 15:32N 35°40' E 015°22'1 0.7
2014-Oct-15 14:31N 35°40' E 015°21'1 0.9
2014-Oct-15 13:33N 35°39' E 015°21'1 1.0
2014-Oct-15 12:26N 35°38' E 015°20'3 0.8
2014-Oct-15 08:30N 35°36' E 015°17'1 0.7
2014-Oct-15 07:29N 35°35' E 015°17'1 0.8
2014-Oct-15 06:08N 35°34' E 015°16'1 0.9
2014-Oct-15 05:03N 35°33' E 015°16'0 0.8
2014-Oct-15 04:33N 35°33' E 015°16'1 0.7
2014-Oct-15 03:33N 35°32' E 015°15'1 0.8
2014-Oct-15 02:33N 35°32' E 015°15'1 0.7
2014-Oct-15 01:32N 35°31' E 015°14'1 0.6
2014-Oct-15 00:33N 35°30' E 015°14'1 0.8
2014-Oct-14 23:33N 35°30' E 015°13'1 0.8
2014-Oct-14 22:33N 35°29' E 015°13'1 0.7
2014-Oct-14 21:33N 35°28' E 015°13'1 0.6
2014-Oct-14 20:33N 35°28' E 015°12'0 0.5
2014-Oct-14 19:33N 35°28' E 015°12'0 0.5
2014-Oct-14 18:33N 35°27' E 015°12'1 0.5
2014-Oct-14 17:33N 35°27' E 015°11'1 0.6
2014-Oct-14 16:33N 35°26' E 015°11'1 0.6
2014-Oct-14 15:33N 35°26' E 015°10'1 0.6
2014-Oct-14 14:33N 35°25' E 015°10'1 0.5
2014-Oct-14 13:33N 35°25' E 015°09'0 0.3
2014-Oct-14 12:33N 35°25' E 015°09'1 0.7
2014-Oct-14 11:33N 35°25' E 015°10'1 0.5
2014-Oct-14 10:33N 35°25' E 015°11'1 0.5
2014-Oct-14 09:33N 35°25' E 015°10'0 0.4
2014-Oct-14 08:33N 35°24' E 015°10'3 2.8
2014-Oct-14 07:33N 35°26' E 015°13'4 0.2
2014-Oct-13 06:07N 35°23' E 015°09'0 0.6
2014-Oct-13 05:33N 35°23' E 015°09'1 0.6
2014-Oct-13 04:33N 35°23' E 015°08'1 0.6
2014-Oct-13 03:33N 35°23' E 015°07'1 0.6
2014-Oct-13 02:33N 35°23' E 015°06'1 0.5
2014-Oct-13 01:33N 35°23' E 015°06'0 0.4
2014-Oct-13 00:33N 35°23' E 015°05'0 0.3
2014-Oct-12 23:31N 35°23' E 015°05'0 0.3
2014-Oct-12 22:25N 35°23' E 015°05'0 0.3
2014-Oct-12 21:27N 35°23' E 015°04'0 0.3
2014-Oct-12 20:26N 35°23' E 015°04'0 0.3
2014-Oct-12 19:33N 35°23' E 015°04'0 0.3
2014-Oct-12 18:33N 35°23' E 015°03'0 0.2
2014-Oct-12 17:33N 35°23' E 015°03'2 1.6
2014-Oct-12 16:33N 35°25' E 015°04'1 0.7
2014-Oct-12 15:33N 35°25' E 015°04'1 0.6
2014-Oct-12 14:31N 35°25' E 015°03'0 0.5
2014-Oct-12 13:33N 35°26' E 015°02'0 0.4
2014-Oct-12 12:24N 35°26' E 015°02'0 0.3
2014-Oct-12 11:33N 35°26' E 015°02'0 0.3
2014-Oct-12 10:33N 35°26' E 015°01'0 0.2
2014-Oct-12 09:32N 35°26' E 015°01'1 0.6
2014-Oct-12 08:33N 35°26' E 015°02'4 3.9
2014-Oct-12 07:33N 35°29' E 015°05'6 5.2
2014-Oct-12 06:27N 35°34' E 015°08'1 0.6
2014-Oct-12 05:20N 35°35' E 015°08'0 0.6
2014-Oct-12 04:33N 35°34' E 015°07'0 0.5
2014-Oct-12 03:33N 35°34' E 015°07'0 0.3
2014-Oct-12 02:32N 35°34' E 015°07'0 0.3
2014-Oct-12 01:33N 35°34' E 015°06'0 0.2
2014-Oct-12 00:33N 35°34' E 015°06'0 0.1
2014-Oct-11 23:33N 35°34' E 015°06'0 0.1
2014-Oct-11 22:23N 35°34' E 015°06'0 0.2
2014-Oct-11 21:33N 35°34' E 015°06'0 0.2
2014-Oct-11 20:30N 35°34' E 015°06'0 0.2
2014-Oct-11 19:26N 35°34' E 015°05'1 0.4
2014-Oct-11 17:21N 35°34' E 015°04'1 1.2
2014-Oct-11 16:27N 35°35' E 015°03'7 8.2
2014-Oct-11 15:32N 35°41' E 014°58'1212.4
2014-Oct-11 14:33N 35°52' E 014°54'1 0.9
2014-Oct-11 13:33N 35°53' E 014°53'0 0.0
2014-Oct-11 10:12N 35°53' E 014°53'0 0.1
2014-Oct-11 09:33N 35°53' E 014°53'0 0.1
2014-Oct-11 08:33N 35°53' E 014°53'0 0.1
2014-Oct-11 07:33N 35°53' E 014°53'0 0.0
2014-Oct-11 06:21N 35°53' E 014°53'0 0.1
2014-Oct-11 05:21N 35°53' E 014°53'0 0.1
2014-Oct-11 04:15N 35°53' E 014°53'0 0.0
2014-Oct-11 03:27N 35°53' E 014°53'0 0.0
2014-Oct-11 02:33N 35°53' E 014°53'0 0.0
2014-Oct-11 01:27N 35°53' E 014°53'0 0.0
2014-Oct-11 00:27N 35°53' E 014°53'0 0.0
2014-Oct-10 23:24N 35°53' E 014°53'0 0.0
2014-Oct-10 22:30N 35°53' E 014°53'0 0.0
2014-Oct-10 21:27N 35°53' E 014°53'0 0.0
2014-Oct-10 20:27N 35°53' E 014°53'0 0.0
2014-Oct-10 19:18N 35°53' E 014°53'0 0.0
2014-Oct-10 18:33N 35°53' E 014°53'0 0.0
2014-Oct-10 17:24N 35°53' E 014°53'0 0.0
2014-Oct-10 16:18N 35°53' E 014°53'0 0.0
2014-Oct-10 15:33N 35°53' E 014°53'0 0.0
2014-Oct-10 14:06N 35°53' E 014°53'0 0.0
2014-Oct-10 12:24N 35°53' E 014°53'14 7.2
2014-Oct-10 10:29N 35°40' E 014°59'  

Dump ship's entire track history